sensor_id;sensor_type;location;lat;lon;timestamp;pressure;altitude;pressure_sealevel;temperature;humidity
75045;BME280;63614;56.026;35.960;2023-12-22T00:00:31;96773.47;;;0.17;85.52
75045;BME280;63614;56.026;35.960;2023-12-22T00:02:57;96764.84;;;0.18;85.72
75045;BME280;63614;56.026;35.960;2023-12-22T00:05:24;96768.19;;;0.18;85.75
75045;BME280;63614;56.026;35.960;2023-12-22T00:07:51;96769.91;;;0.11;85.49
75045;BME280;63614;56.026;35.960;2023-12-22T00:10:17;96769.47;;;0.08;85.63
75045;BME280;63614;56.026;35.960;2023-12-22T00:12:44;96773.81;;;0.07;85.77
75045;BME280;63614;56.026;35.960;2023-12-22T00:15:10;96764.63;;;0.13;85.66
75045;BME280;63614;56.026;35.960;2023-12-22T00:17:36;96759.44;;;0.06;85.70
75045;BME280;63614;56.026;35.960;2023-12-22T00:20:02;96762.16;;;0.05;86.04
75045;BME280;63614;56.026;35.960;2023-12-22T00:22:30;96763.25;;;0.17;85.65
75045;BME280;63614;56.026;35.960;2023-12-22T00:24:56;96758.88;;;0.11;85.90
75045;BME280;63614;56.026;35.960;2023-12-22T00:27:23;96763.47;;;0.22;85.75
75045;BME280;63614;56.026;35.960;2023-12-22T00:29:49;96756.63;;;0.23;85.54
75045;BME280;63614;56.026;35.960;2023-12-22T00:32:15;96747.28;;;0.08;85.63
75045;BME280;63614;56.026;35.960;2023-12-22T00:34:41;96752.28;;;0.23;85.63
75045;BME280;63614;56.026;35.960;2023-12-22T00:37:07;96754.66;;;0.25;85.17
75045;BME280;63614;56.026;35.960;2023-12-22T00:39:33;96757.22;;;0.25;85.41
75045;BME280;63614;56.026;35.960;2023-12-22T00:41:59;96753.34;;;0.35;85.07
75045;BME280;63614;56.026;35.960;2023-12-22T00:44:25;96754.91;;;0.36;84.54
75045;BME280;63614;56.026;35.960;2023-12-22T00:46:53;96749.06;;;0.43;84.40
75045;BME280;63614;56.026;35.960;2023-12-22T00:49:19;96749.34;;;0.26;84.86
75045;BME280;63614;56.026;35.960;2023-12-22T00:51:46;96743.91;;;0.36;84.72
75045;BME280;63614;56.026;35.960;2023-12-22T00:54:11;96740.22;;;0.45;84.28
75045;BME280;63614;56.026;35.960;2023-12-22T00:56:38;96728.97;;;0.40;84.21
75045;BME280;63614;56.026;35.960;2023-12-22T00:59:04;96724.41;;;0.35;84.23
75045;BME280;63614;56.026;35.960;2023-12-22T01:01:30;96715.19;;;0.34;84.29
75045;BME280;63614;56.026;35.960;2023-12-22T01:03:57;96724.09;;;0.45;84.18
75045;BME280;63614;56.026;35.960;2023-12-22T01:06:23;96712.25;;;0.37;83.97
75045;BME280;63614;56.026;35.960;2023-12-22T01:08:48;96707.91;;;0.31;84.14
75045;BME280;63614;56.026;35.960;2023-12-22T01:11:18;96708.56;;;0.46;83.80
75045;BME280;63614;56.026;35.960;2023-12-22T01:13:44;96712.63;;;0.34;83.75
75045;BME280;63614;56.026;35.960;2023-12-22T01:16:10;96709.53;;;0.45;84.04
75045;BME280;63614;56.026;35.960;2023-12-22T01:18:36;96701.72;;;0.53;83.62
75045;BME280;63614;56.026;35.960;2023-12-22T01:21:03;96697.00;;;0.57;83.00
75045;BME280;63614;56.026;35.960;2023-12-22T01:23:29;96704.09;;;0.55;83.41
75045;BME280;63614;56.026;35.960;2023-12-22T01:25:54;96686.19;;;0.55;83.26
75045;BME280;63614;56.026;35.960;2023-12-22T01:28:20;96694.06;;;0.60;83.16
75045;BME280;63614;56.026;35.960;2023-12-22T01:30:46;96680.69;;;0.58;83.31
75045;BME280;63614;56.026;35.960;2023-12-22T01:33:13;96683.25;;;0.58;82.84
75045;BME280;63614;56.026;35.960;2023-12-22T01:35:39;96671.03;;;0.53;83.38
75045;BME280;63614;56.026;35.960;2023-12-22T01:38:04;96669.88;;;0.56;83.40
75045;BME280;63614;56.026;35.960;2023-12-22T01:40:30;96671.22;;;0.52;83.50
75045;BME280;63614;56.026;35.960;2023-12-22T01:42:56;96668.88;;;0.57;83.40
75045;BME280;63614;56.026;35.960;2023-12-22T01:45:22;96668.28;;;0.62;83.60
75045;BME280;63614;56.026;35.960;2023-12-22T01:47:48;96668.69;;;0.65;83.28
75045;BME280;63614;56.026;35.960;2023-12-22T01:50:15;96658.66;;;0.64;83.20
75045;BME280;63614;56.026;35.960;2023-12-22T01:52:42;96659.06;;;0.61;83.55
75045;BME280;63614;56.026;35.960;2023-12-22T01:55:10;96656.91;;;0.64;83.50
75045;BME280;63614;56.026;35.960;2023-12-22T01:57:37;96658.91;;;0.76;83.39
75045;BME280;63614;56.026;35.960;2023-12-22T02:00:04;96649.03;;;0.66;83.17
75045;BME280;63614;56.026;35.960;2023-12-22T02:02:38;96648.66;;;0.69;83.46
75045;BME280;63614;56.026;35.960;2023-12-22T02:05:05;96644.69;;;0.60;83.78
75045;BME280;63614;56.026;35.960;2023-12-22T02:07:34;96643.91;;;0.59;83.82
75045;BME280;63614;56.026;35.960;2023-12-22T02:10:00;96640.59;;;0.72;83.72
75045;BME280;63614;56.026;35.960;2023-12-22T02:12:30;96641.56;;;0.71;83.44
75045;BME280;63614;56.026;35.960;2023-12-22T02:14:56;96634.88;;;0.70;83.64
75045;BME280;63614;56.026;35.960;2023-12-22T02:17:29;96642.78;;;0.82;83.27
75045;BME280;63614;56.026;35.960;2023-12-22T02:19:58;96626.22;;;0.78;83.04
75045;BME280;63614;56.026;35.960;2023-12-22T02:22:24;96622.91;;;0.90;82.45
75045;BME280;63614;56.026;35.960;2023-12-22T02:24:50;96622.72;;;0.85;82.40
75045;BME280;63614;56.026;35.960;2023-12-22T02:27:33;96612.09;;;0.88;82.21
75045;BME280;63614;56.026;35.960;2023-12-22T02:30:11;96624.31;;;0.93;82.22
75045;BME280;63614;56.026;35.960;2023-12-22T02:32:45;96614.06;;;0.86;82.23
75045;BME280;63614;56.026;35.960;2023-12-22T02:35:21;96612.47;;;0.79;82.53
75045;BME280;63614;56.026;35.960;2023-12-22T02:37:49;96601.22;;;0.80;82.54
75045;BME280;63614;56.026;35.960;2023-12-22T02:40:16;96605.16;;;0.69;82.62
75045;BME280;63614;56.026;35.960;2023-12-22T02:42:44;96606.75;;;0.77;82.50
75045;BME280;63614;56.026;35.960;2023-12-22T02:45:14;96597.13;;;0.79;82.66
75045;BME280;63614;56.026;35.960;2023-12-22T02:47:40;96592.97;;;0.84;82.49
75045;BME280;63614;56.026;35.960;2023-12-22T02:50:07;96595.91;;;0.75;82.60
75045;BME280;63614;56.026;35.960;2023-12-22T02:52:33;96596.13;;;0.80;82.66
75045;BME280;63614;56.026;35.960;2023-12-22T02:54:59;96594.19;;;0.88;82.30
75045;BME280;63614;56.026;35.960;2023-12-22T02:57:25;96587.28;;;0.96;81.71
75045;BME280;63614;56.026;35.960;2023-12-22T02:59:51;96586.88;;;0.85;81.97
75045;BME280;63614;56.026;35.960;2023-12-22T03:02:17;96587.47;;;0.81;82.20
75045;BME280;63614;56.026;35.960;2023-12-22T03:04:43;96586.69;;;0.80;81.95
75045;BME280;63614;56.026;35.960;2023-12-22T03:07:09;96575.69;;;0.86;82.03
75045;BME280;63614;56.026;35.960;2023-12-22T03:09:34;96564.66;;;0.93;82.25
75045;BME280;63614;56.026;35.960;2023-12-22T03:12:01;96573.13;;;0.86;81.79
75045;BME280;63614;56.026;35.960;2023-12-22T03:14:31;96579.59;;;0.82;81.91
75045;BME280;63614;56.026;35.960;2023-12-22T03:17:02;96576.28;;;0.88;81.61
75045;BME280;63614;56.026;35.960;2023-12-22T03:19:29;96576.66;;;0.92;81.87
75045;BME280;63614;56.026;35.960;2023-12-22T03:21:55;96577.03;;;0.82;81.96
75045;BME280;63614;56.026;35.960;2023-12-22T03:24:23;96580.22;;;0.91;81.62
75045;BME280;63614;56.026;35.960;2023-12-22T03:26:49;96580.19;;;0.84;82.18
75045;BME280;63614;56.026;35.960;2023-12-22T03:29:15;96566.41;;;0.79;82.39
75045;BME280;63614;56.026;35.960;2023-12-22T03:31:41;96569.75;;;0.79;82.34
75045;BME280;63614;56.026;35.960;2023-12-22T03:34:07;96567.00;;;0.74;82.46
75045;BME280;63614;56.026;35.960;2023-12-22T03:36:33;96565.84;;;0.83;82.56
75045;BME280;63614;56.026;35.960;2023-12-22T03:38:59;96555.59;;;0.83;82.21
75045;BME280;63614;56.026;35.960;2023-12-22T03:41:25;96554.00;;;0.82;82.09
75045;BME280;63614;56.026;35.960;2023-12-22T03:43:50;96544.78;;;0.88;81.71
75045;BME280;63614;56.026;35.960;2023-12-22T03:46:16;96546.72;;;0.86;81.81
75045;BME280;63614;56.026;35.960;2023-12-22T03:48:42;96548.69;;;0.90;81.72
75045;BME280;63614;56.026;35.960;2023-12-22T03:51:08;96550.06;;;0.80;82.18
75045;BME280;63614;56.026;35.960;2023-12-22T03:53:36;96539.66;;;0.88;81.73
75045;BME280;63614;56.026;35.960;2023-12-22T03:56:02;96544.16;;;0.86;82.05
75045;BME280;63614;56.026;35.960;2023-12-22T03:58:27;96545.38;;;0.77;82.04
75045;BME280;63614;56.026;35.960;2023-12-22T04:00:56;96538.47;;;0.70;82.28
75045;BME280;63614;56.026;35.960;2023-12-22T04:03:22;96545.94;;;0.72;82.53
75045;BME280;63614;56.026;35.960;2023-12-22T04:05:47;96531.75;;;0.63;82.90
75045;BME280;63614;56.026;35.960;2023-12-22T04:08:13;96538.84;;;0.74;82.60
75045;BME280;63614;56.026;35.960;2023-12-22T04:10:40;96530.16;;;0.62;82.72
75045;BME280;63614;56.026;35.960;2023-12-22T04:13:05;96522.69;;;0.67;82.60
75045;BME280;63614;56.026;35.960;2023-12-22T04:15:31;96524.47;;;0.73;82.73
75045;BME280;63614;56.026;35.960;2023-12-22T04:17:57;96521.13;;;0.72;82.49
75045;BME280;63614;56.026;35.960;2023-12-22T04:20:23;96521.72;;;0.75;82.27
75045;BME280;63614;56.026;35.960;2023-12-22T04:22:49;96513.47;;;0.72;82.50
75045;BME280;63614;56.026;35.960;2023-12-22T04:25:15;96502.03;;;0.68;82.40
75045;BME280;63614;56.026;35.960;2023-12-22T04:27:41;96508.34;;;0.66;82.90
75045;BME280;63614;56.026;35.960;2023-12-22T04:30:08;96514.44;;;0.65;83.15
75045;BME280;63614;56.026;35.960;2023-12-22T04:32:34;96509.50;;;0.63;82.90
75045;BME280;63614;56.026;35.960;2023-12-22T04:35:00;96516.41;;;0.63;83.54
75045;BME280;63614;56.026;35.960;2023-12-22T04:37:26;96512.06;;;0.70;82.96
75045;BME280;63614;56.026;35.960;2023-12-22T04:39:52;96503.81;;;0.75;82.80
75045;BME280;63614;56.026;35.960;2023-12-22T04:42:17;96506.56;;;0.73;82.87
75045;BME280;63614;56.026;35.960;2023-12-22T04:44:44;96516.22;;;0.78;82.94
75045;BME280;63614;56.026;35.960;2023-12-22T04:47:09;96506.75;;;0.65;83.04
75045;BME280;63614;56.026;35.960;2023-12-22T04:49:35;96508.34;;;0.72;83.05
75045;BME280;63614;56.026;35.960;2023-12-22T04:52:01;96509.72;;;0.68;83.30
75045;BME280;63614;56.026;35.960;2023-12-22T04:54:27;96506.19;;;0.63;82.89
75045;BME280;63614;56.026;35.960;2023-12-22T04:56:53;96505.41;;;0.69;83.18
75045;BME280;63614;56.026;35.960;2023-12-22T04:59:19;96500.66;;;0.66;83.24
75045;BME280;63614;56.026;35.960;2023-12-22T05:01:45;96496.91;;;0.55;83.13
75045;BME280;63614;56.026;35.960;2023-12-22T05:04:11;96492.59;;;0.62;83.18
75045;BME280;63614;56.026;35.960;2023-12-22T05:06:37;96501.25;;;0.61;83.33
75045;BME280;63614;56.026;35.960;2023-12-22T05:09:03;96496.72;;;0.57;83.59
75045;BME280;63614;56.026;35.960;2023-12-22T05:11:29;96498.88;;;0.53;83.65
75045;BME280;63614;56.026;35.960;2023-12-22T05:13:55;96501.44;;;0.60;83.71
75045;BME280;63614;56.026;35.960;2023-12-22T05:16:20;96493.59;;;0.61;83.75
75045;BME280;63614;56.026;35.960;2023-12-22T05:18:46;96491.59;;;0.63;83.47
75045;BME280;63614;56.026;35.960;2023-12-22T05:21:13;96482.34;;;0.56;83.40
75045;BME280;63614;56.026;35.960;2023-12-22T05:23:40;96500.66;;;0.66;83.57
75045;BME280;63614;56.026;35.960;2023-12-22T05:26:06;96492.38;;;0.64;83.68
75045;BME280;63614;56.026;35.960;2023-12-22T05:28:32;96489.25;;;0.62;83.55
75045;BME280;63614;56.026;35.960;2023-12-22T05:30:58;96494.16;;;0.57;83.69
75045;BME280;63614;56.026;35.960;2023-12-22T05:33:24;96493.97;;;0.58;83.60
75045;BME280;63614;56.026;35.960;2023-12-22T05:35:50;96490.63;;;0.58;83.81
75045;BME280;63614;56.026;35.960;2023-12-22T05:38:15;96505.59;;;0.61;83.46
75045;BME280;63614;56.026;35.960;2023-12-22T05:40:41;96504.00;;;0.53;83.87
75045;BME280;63614;56.026;35.960;2023-12-22T05:43:07;96506.75;;;0.58;83.95
75045;BME280;63614;56.026;35.960;2023-12-22T05:45:33;96509.50;;;0.50;84.00
75045;BME280;63614;56.026;35.960;2023-12-22T05:47:59;96515.59;;;0.56;84.39
75045;BME280;63614;56.026;35.960;2023-12-22T05:50:25;96514.44;;;0.51;84.35
75045;BME280;63614;56.026;35.960;2023-12-22T05:52:51;96513.44;;;0.52;84.06
75045;BME280;63614;56.026;35.960;2023-12-22T05:55:17;96520.31;;;0.45;84.39
75045;BME280;63614;56.026;35.960;2023-12-22T05:57:43;96517.56;;;0.47;84.58
75045;BME280;63614;56.026;35.960;2023-12-22T06:00:09;96510.88;;;0.52;83.84
75045;BME280;63614;56.026;35.960;2023-12-22T06:02:37;96514.03;;;0.54;83.79
75045;BME280;63614;56.026;35.960;2023-12-22T06:05:04;96523.50;;;0.67;83.43
75045;BME280;63614;56.026;35.960;2023-12-22T06:07:30;96524.09;;;0.69;83.48
75045;BME280;63614;56.026;35.960;2023-12-22T06:09:56;96529.00;;;0.64;83.46
75045;BME280;63614;56.026;35.960;2023-12-22T06:12:21;96519.16;;;0.54;83.67
75045;BME280;63614;56.026;35.960;2023-12-22T06:14:47;96525.25;;;0.60;83.84
75045;BME280;63614;56.026;35.960;2023-12-22T06:17:13;96520.53;;;0.57;83.52
75045;BME280;63614;56.026;35.960;2023-12-22T06:19:39;96523.88;;;0.64;83.27
75045;BME280;63614;56.026;35.960;2023-12-22T06:22:05;96524.09;;;0.63;83.51
75045;BME280;63614;56.026;35.960;2023-12-22T06:24:31;96518.38;;;0.67;83.52
75045;BME280;63614;56.026;35.960;2023-12-22T06:26:57;96517.38;;;0.62;83.35
75045;BME280;63614;56.026;35.960;2023-12-22T06:29:23;96518.38;;;0.67;83.02
75045;BME280;63614;56.026;35.960;2023-12-22T06:31:48;96521.72;;;0.75;82.77
75045;BME280;63614;56.026;35.960;2023-12-22T06:34:17;96516.78;;;0.66;82.94
75045;BME280;63614;56.026;35.960;2023-12-22T06:36:43;96519.56;;;0.65;83.25
75045;BME280;63614;56.026;35.960;2023-12-22T06:39:09;96520.94;;;0.61;83.51
75045;BME280;63614;56.026;35.960;2023-12-22T06:41:35;96511.88;;;0.71;83.08
75045;BME280;63614;56.026;35.960;2023-12-22T06:44:01;96514.44;;;0.65;83.00
75045;BME280;63614;56.026;35.960;2023-12-22T06:46:28;96526.25;;;0.66;83.25
75045;BME280;63614;56.026;35.960;2023-12-22T06:48:57;96522.69;;;0.60;83.23
75045;BME280;63614;56.026;35.960;2023-12-22T06:51:25;96528.44;;;0.69;83.04
75045;BME280;63614;56.026;35.960;2023-12-22T06:53:52;96516.78;;;0.66;82.73
75045;BME280;63614;56.026;35.960;2023-12-22T06:56:20;96535.47;;;0.67;82.75
75045;BME280;63614;56.026;35.960;2023-12-22T06:58:50;96533.16;;;0.72;82.96
75045;BME280;63614;56.026;35.960;2023-12-22T07:03:55;96531.38;;;0.66;82.53
75045;BME280;63614;56.026;35.960;2023-12-22T07:06:22;96518.59;;;0.79;82.10
75045;BME280;63614;56.026;35.960;2023-12-22T07:11:49;96527.25;;;0.92;81.71
75045;BME280;63614;56.026;35.960;2023-12-22T07:14:21;96513.88;;;0.89;81.58
75045;BME280;63614;56.026;35.960;2023-12-22T07:16:47;96520.56;;;0.84;81.70
75045;BME280;63614;56.026;35.960;2023-12-22T07:19:13;96530.59;;;0.92;81.55
75045;BME280;63614;56.026;35.960;2023-12-22T07:21:40;96527.06;;;0.86;81.41
75045;BME280;63614;56.026;35.960;2023-12-22T07:24:07;96529.44;;;0.88;81.32
75045;BME280;63614;56.026;35.960;2023-12-22T07:26:33;96529.03;;;0.91;81.12
75045;BME280;63614;56.026;35.960;2023-12-22T07:28:59;96523.13;;;1.04;81.17
75045;BME280;63614;56.026;35.960;2023-12-22T07:31:25;96506.59;;;0.86;81.19
75045;BME280;63614;56.026;35.960;2023-12-22T07:33:52;96523.50;;;0.94;81.13
75045;BME280;63614;56.026;35.960;2023-12-22T07:36:18;96521.16;;;0.99;81.13
75045;BME280;63614;56.026;35.960;2023-12-22T07:38:44;96513.06;;;0.96;81.16
75045;BME280;63614;56.026;35.960;2023-12-22T07:41:10;96519.00;;;0.96;80.94
75045;BME280;63614;56.026;35.960;2023-12-22T07:43:36;96528.63;;;1.07;80.76
75045;BME280;63614;56.026;35.960;2023-12-22T07:46:02;96526.66;;;0.96;81.02
75045;BME280;63614;56.026;35.960;2023-12-22T07:48:30;96528.22;;;0.97;80.72
75045;BME280;63614;56.026;35.960;2023-12-22T07:50:56;96521.94;;;1.00;80.78
75045;BME280;63614;56.026;35.960;2023-12-22T07:53:22;96526.06;;;0.94;80.74
75045;BME280;63614;56.026;35.960;2023-12-22T07:55:48;96511.50;;;1.01;80.61
75045;BME280;63614;56.026;35.960;2023-12-22T07:58:14;96508.56;;;1.04;80.56
75045;BME280;63614;56.026;35.960;2023-12-22T08:00:40;96508.75;;;1.09;79.98
75045;BME280;63614;56.026;35.960;2023-12-22T08:03:06;96506.97;;;1.10;80.05
75045;BME280;63614;56.026;35.960;2023-12-22T08:05:32;96513.28;;;1.14;80.18
75045;BME280;63614;56.026;35.960;2023-12-22T08:07:59;96507.16;;;1.08;79.79
75045;BME280;63614;56.026;35.960;2023-12-22T08:10:25;96511.09;;;1.18;79.71
75045;BME280;63614;56.026;35.960;2023-12-22T08:12:53;96501.84;;;1.17;79.59
75045;BME280;63614;56.026;35.960;2023-12-22T08:15:19;96506.97;;;1.23;79.15
75045;BME280;63614;56.026;35.960;2023-12-22T08:17:49;96502.84;;;1.09;79.42
75045;BME280;63614;56.026;35.960;2023-12-22T08:20:19;96505.00;;;1.19;79.18
75045;BME280;63614;56.026;35.960;2023-12-22T08:22:46;96499.09;;;1.12;79.74
75045;BME280;63614;56.026;35.960;2023-12-22T08:25:12;96498.09;;;1.19;79.55
75045;BME280;63614;56.026;35.960;2023-12-22T08:27:38;96501.66;;;0.98;79.73
75045;BME280;63614;56.026;35.960;2023-12-22T08:30:05;96499.28;;;1.03;79.63
75045;BME280;63614;56.026;35.960;2023-12-22T08:32:31;96482.19;;;1.04;79.35
75045;BME280;63614;56.026;35.960;2023-12-22T08:34:57;96493.59;;;1.21;79.44
75045;BME280;63614;56.026;35.960;2023-12-22T08:37:22;96483.72;;;1.12;79.23
75045;BME280;63614;56.026;35.960;2023-12-22T08:39:48;96486.28;;;1.05;79.44
75045;BME280;63614;56.026;35.960;2023-12-22T08:42:17;96478.81;;;1.17;79.23
75045;BME280;63614;56.026;35.960;2023-12-22T08:44:43;96475.28;;;1.11;79.28
75045;BME280;63614;56.026;35.960;2023-12-22T08:47:08;96480.97;;;1.13;79.24
75045;BME280;63614;56.026;35.960;2023-12-22T08:49:34;96481.19;;;1.18;79.00
75045;BME280;63614;56.026;35.960;2023-12-22T08:52:00;96474.25;;;1.25;78.98
75045;BME280;63614;56.026;35.960;2023-12-22T08:54:27;96482.34;;;1.22;78.72
75045;BME280;63614;56.026;35.960;2023-12-22T08:56:53;96471.34;;;1.15;78.66
75045;BME280;63614;56.026;35.960;2023-12-22T08:59:19;96477.06;;;1.04;78.72
75045;BME280;63614;56.026;35.960;2023-12-22T09:01:45;96467.19;;;1.14;78.86
75045;BME280;63614;56.026;35.960;2023-12-22T09:04:11;96463.06;;;1.20;78.64
75045;BME280;63614;56.026;35.960;2023-12-22T09:06:37;96463.44;;;1.10;78.61
75045;BME280;63614;56.026;35.960;2023-12-22T09:09:03;96470.94;;;1.18;78.85
75045;BME280;63614;56.026;35.960;2023-12-22T09:11:29;96463.66;;;1.02;79.00
75045;BME280;63614;56.026;35.960;2023-12-22T09:13:55;96464.66;;;1.07;78.85
75045;BME280;63614;56.026;35.960;2023-12-22T09:16:22;96474.88;;;1.07;78.87
75045;BME280;63614;56.026;35.960;2023-12-22T09:18:48;96464.66;;;1.01;79.13
75045;BME280;63614;56.026;35.960;2023-12-22T09:21:15;96464.84;;;1.13;78.85
75045;BME280;63614;56.026;35.960;2023-12-22T09:23:46;96476.06;;;1.18;78.67
75045;BME280;63614;56.026;35.960;2023-12-22T09:26:13;96468.56;;;1.17;78.13
75045;BME280;63614;56.026;35.960;2023-12-22T09:28:40;96470.13;;;1.24;78.35
75045;BME280;63614;56.026;35.960;2023-12-22T09:31:09;96477.97;;;1.43;77.49
75045;BME280;63614;56.026;35.960;2023-12-22T09:33:35;96455.16;;;1.28;77.73
75045;BME280;63614;56.026;35.960;2023-12-22T09:36:01;96455.53;;;1.38;77.24
75045;BME280;63614;56.026;35.960;2023-12-22T09:38:28;96444.28;;;1.39;77.22
75045;BME280;63614;56.026;35.960;2023-12-22T09:40:55;96453.75;;;1.45;77.03
75045;BME280;63614;56.026;35.960;2023-12-22T09:43:22;96453.94;;;1.44;77.14
75045;BME280;63614;56.026;35.960;2023-12-22T09:45:51;96448.06;;;1.23;77.53
75045;BME280;63614;56.026;35.960;2023-12-22T09:48:18;96445.91;;;1.20;77.50
75045;BME280;63614;56.026;35.960;2023-12-22T09:50:46;96442.31;;;1.41;77.07
75045;BME280;63614;56.026;35.960;2023-12-22T09:53:13;96442.72;;;1.38;76.86
75045;BME280;63614;56.026;35.960;2023-12-22T09:55:45;96438.16;;;1.47;76.66
75045;BME280;63614;56.026;35.960;2023-12-22T09:58:13;96443.91;;;1.42;76.47
75045;BME280;63614;56.026;35.960;2023-12-22T10:00:40;96430.09;;;1.50;76.44
75045;BME280;63614;56.026;35.960;2023-12-22T10:03:07;96431.50;;;1.39;76.81
75045;BME280;63614;56.026;35.960;2023-12-22T10:05:34;96417.09;;;1.38;76.86
75045;BME280;63614;56.026;35.960;2023-12-22T10:08:01;96414.53;;;1.45;76.51
75045;BME280;63614;56.026;35.960;2023-12-22T10:10:28;96418.66;;;1.46;76.76
75045;BME280;63614;56.026;35.960;2023-12-22T10:12:58;96407.03;;;1.43;76.27
75045;BME280;63614;56.026;35.960;2023-12-22T10:15:25;96407.47;;;1.34;76.60
75045;BME280;63614;56.026;35.960;2023-12-22T10:17:52;96409.63;;;1.37;76.66
75045;BME280;63614;56.026;35.960;2023-12-22T10:20:19;96403.56;;;1.31;77.04
75045;BME280;63614;56.026;35.960;2023-12-22T10:22:45;96391.53;;;1.32;76.63
75045;BME280;63614;56.026;35.960;2023-12-22T10:25:20;96395.47;;;1.27;76.35
75045;BME280;63614;56.026;35.960;2023-12-22T10:27:46;96393.69;;;1.35;76.50
75045;BME280;63614;56.026;35.960;2023-12-22T10:30:12;96394.84;;;1.45;76.14
75045;BME280;63614;56.026;35.960;2023-12-22T10:32:40;96397.53;;;1.57;75.56
75045;BME280;63614;56.026;35.960;2023-12-22T10:35:10;96390.47;;;1.53;75.86
75045;BME280;63614;56.026;35.960;2023-12-22T10:37:36;96392.06;;;1.40;76.36
75045;BME280;63614;56.026;35.960;2023-12-22T10:40:05;96394.88;;;1.39;75.96
75045;BME280;63614;56.026;35.960;2023-12-22T10:42:32;96387.19;;;1.39;75.92
75045;BME280;63614;56.026;35.960;2023-12-22T10:44:58;96379.28;;;1.34;76.01
75045;BME280;63614;56.026;35.960;2023-12-22T10:47:24;96371.66;;;1.27;76.10
75045;BME280;63614;56.026;35.960;2023-12-22T10:49:51;96369.47;;;1.24;75.95
75045;BME280;63614;56.026;35.960;2023-12-22T10:52:17;96371.66;;;1.20;75.95
75045;BME280;63614;56.026;35.960;2023-12-22T10:54:44;96366.69;;;1.32;75.41
75045;BME280;63614;56.026;35.960;2023-12-22T10:57:10;96365.47;;;1.41;75.26
75045;BME280;63614;56.026;35.960;2023-12-22T10:59:43;96370.06;;;1.26;75.38
75045;BME280;63614;56.026;35.960;2023-12-22T11:02:15;96365.53;;;1.28;75.55
75045;BME280;63614;56.026;35.960;2023-12-22T11:04:47;96367.50;;;1.26;74.96
75045;BME280;63614;56.026;35.960;2023-12-22T11:07:19;96359.81;;;1.26;75.13
75045;BME280;63614;56.026;35.960;2023-12-22T11:09:51;96351.72;;;1.29;75.39
75045;BME280;63614;56.026;35.960;2023-12-22T11:12:19;96350.22;;;1.15;75.63
75045;BME280;63614;56.026;35.960;2023-12-22T11:14:46;96351.00;;;1.08;75.82
75045;BME280;63614;56.026;35.960;2023-12-22T11:17:25;96345.16;;;1.01;76.14
75045;BME280;63614;56.026;35.960;2023-12-22T11:19:55;96330.13;;;1.12;75.98
75045;BME280;63614;56.026;35.960;2023-12-22T11:22:22;96332.16;;;1.03;76.22
75045;BME280;63614;56.026;35.960;2023-12-22T11:24:49;96327.47;;;0.93;76.55
75045;BME280;63614;56.026;35.960;2023-12-22T11:27:18;96318.59;;;0.89;76.38
75045;BME280;63614;56.026;35.960;2023-12-22T11:29:47;96330.19;;;0.98;76.58
75045;BME280;63614;56.026;35.960;2023-12-22T11:32:15;96329.00;;;1.01;76.82
75045;BME280;63614;56.026;35.960;2023-12-22T11:34:43;96330.34;;;1.10;75.93
75045;BME280;63614;56.026;35.960;2023-12-22T11:37:11;96319.19;;;0.98;76.19
75045;BME280;63614;56.026;35.960;2023-12-22T11:39:40;96305.03;;;0.88;76.56
75045;BME280;63614;56.026;35.960;2023-12-22T11:42:08;96318.25;;;0.79;76.27
75045;BME280;63614;56.026;35.960;2023-12-22T11:44:37;96325.13;;;0.78;76.75
75045;BME280;63614;56.026;35.960;2023-12-22T11:47:07;96324.16;;;0.72;76.77
75045;BME280;63614;56.026;35.960;2023-12-22T11:49:35;96318.25;;;0.72;76.78
75045;BME280;63614;56.026;35.960;2023-12-22T11:52:10;96319.22;;;0.78;76.59
75045;BME280;63614;56.026;35.960;2023-12-22T11:54:49;96317.25;;;0.80;76.16
75045;BME280;63614;56.026;35.960;2023-12-22T11:59:55;96317.25;;;0.80;76.20
75045;BME280;63614;56.026;35.960;2023-12-22T12:02:21;96316.09;;;0.76;76.29
75045;BME280;63614;56.026;35.960;2023-12-22T12:04:48;96310.38;;;0.67;76.72
75045;BME280;63614;56.026;35.960;2023-12-22T12:10:04;96320.22;;;0.70;76.54
75045;BME280;63614;56.026;35.960;2023-12-22T12:12:30;96316.25;;;0.81;76.18
75045;BME280;63614;56.026;35.960;2023-12-22T12:14:58;96309.81;;;0.65;76.51
75045;BME280;63614;56.026;35.960;2023-12-22T12:17:32;96309.22;;;0.69;76.38
75045;BME280;63614;56.026;35.960;2023-12-22T12:19:58;96321.41;;;0.74;76.37
75045;BME280;63614;56.026;35.960;2023-12-22T12:22:25;96324.75;;;0.68;76.33
75045;BME280;63614;56.026;35.960;2023-12-22T12:24:52;96316.09;;;0.62;76.36
75045;BME280;63614;56.026;35.960;2023-12-22T12:27:19;96309.22;;;0.49;76.56
75045;BME280;63614;56.026;35.960;2023-12-22T12:29:45;96308.06;;;0.52;76.84
75045;BME280;63614;56.026;35.960;2023-12-22T12:32:14;96303.53;;;0.47;76.35
75045;BME280;63614;56.026;35.960;2023-12-22T12:34:43;96311.41;;;0.52;76.51
75045;BME280;63614;56.026;35.960;2023-12-22T12:37:09;96302.00;;;0.46;76.62
75045;BME280;63614;56.026;35.960;2023-12-22T12:39:37;96295.47;;;0.50;76.44
75045;BME280;63614;56.026;35.960;2023-12-22T12:42:07;96303.75;;;0.39;76.51
75045;BME280;63614;56.026;35.960;2023-12-22T12:44:35;96304.75;;;0.25;77.22
75045;BME280;63614;56.026;35.960;2023-12-22T12:47:11;96300.59;;;0.24;77.16
75045;BME280;63614;56.026;35.960;2023-12-22T12:49:37;96296.09;;;0.19;77.55
75045;BME280;63614;56.026;35.960;2023-12-22T12:52:03;96304.38;;;0.21;77.60
75045;BME280;63614;56.026;35.960;2023-12-22T12:54:31;96282.34;;;0.13;77.74
75045;BME280;63614;56.026;35.960;2023-12-22T12:56:57;96287.84;;;0.17;78.11
75045;BME280;63614;56.026;35.960;2023-12-22T12:59:23;96283.91;;;0.08;78.25
75045;BME280;63614;56.026;35.960;2023-12-22T13:01:49;96286.88;;;0.11;77.72
75045;BME280;63614;56.026;35.960;2023-12-22T13:04:15;96282.91;;;0.15;77.94
75045;BME280;63614;56.026;35.960;2023-12-22T13:06:51;96299.63;;;0.25;77.68
75045;BME280;63614;56.026;35.960;2023-12-22T13:09:18;96294.31;;;0.26;77.37